Terminal Aerodrome Forecast
Issued by NWS

Home | Current Version | Previous Version | Text Only | Print | Product List | Glossary On
Versions: 1 2 3 4 5 6 7 8 9 10 11 12 13 14 15 16 17 18 19 20 21 22 23
000
FTUS41 KPBZ 022336
TAFBVI
TAF
KBVI 022336Z 0300/0324 33005KT P6SM SCT060
     FM030900 03003KT 4SM BR SCT250
     FM031500 09005KT P6SM BKN050
     FM032100 11005KT P6SM -SHRA OVC040
      AMD NOT SKED 0302/0312=

USA.gov is the U.S. government's official web portal to all federal, state and local government web resources and services.